sensor_id;sensor_type;location;lat;lon;timestamp;temperature;humidity
13856;DHT22;6998;53.608;9.958;2023-07-20T00:01:38;14.70;99.90
13856;DHT22;6998;53.608;9.958;2023-07-20T00:04:10;14.80;99.90
13856;DHT22;6998;53.608;9.958;2023-07-20T00:06:36;14.80;99.90
13856;DHT22;6998;53.608;9.958;2023-07-20T00:09:05;14.80;99.90
13856;DHT22;6998;53.608;9.958;2023-07-20T00:11:35;14.90;99.90
13856;DHT22;6998;53.608;9.958;2023-07-20T00:14:02;14.90;99.90
13856;DHT22;6998;53.608;9.958;2023-07-20T00:16:31;15.00;99.90
13856;DHT22;6998;53.608;9.958;2023-07-20T00:18:57;15.00;99.90
13856;DHT22;6998;53.608;9.958;2023-07-20T00:21:24;15.00;99.90
13856;DHT22;6998;53.608;9.958;2023-07-20T00:23:51;15.00;99.90
13856;DHT22;6998;53.608;9.958;2023-07-20T00:26:18;15.00;99.90
13856;DHT22;6998;53.608;9.958;2023-07-20T00:28:45;15.10;99.90
13856;DHT22;6998;53.608;9.958;2023-07-20T00:31:11;15.10;99.90
13856;DHT22;6998;53.608;9.958;2023-07-20T00:33:39;15.10;99.90
13856;DHT22;6998;53.608;9.958;2023-07-20T00:36:06;15.10;99.90
13856;DHT22;6998;53.608;9.958;2023-07-20T00:38:33;15.10;99.90
13856;DHT22;6998;53.608;9.958;2023-07-20T00:40:59;15.10;99.90
13856;DHT22;6998;53.608;9.958;2023-07-20T00:43:26;15.20;99.90
13856;DHT22;6998;53.608;9.958;2023-07-20T00:45:53;15.20;99.90
13856;DHT22;6998;53.608;9.958;2023-07-20T00:48:19;15.30;99.90
13856;DHT22;6998;53.608;9.958;2023-07-20T00:50:48;15.40;99.90
13856;DHT22;6998;53.608;9.958;2023-07-20T00:53:14;15.40;99.90
13856;DHT22;6998;53.608;9.958;2023-07-20T00:55:41;15.40;99.90
13856;DHT22;6998;53.608;9.958;2023-07-20T00:58:08;15.40;99.90
13856;DHT22;6998;53.608;9.958;2023-07-20T01:00:35;15.40;99.90
13856;DHT22;6998;53.608;9.958;2023-07-20T01:03:02;15.30;99.90
13856;DHT22;6998;53.608;9.958;2023-07-20T01:05:36;15.20;99.90
13856;DHT22;6998;53.608;9.958;2023-07-20T01:08:09;15.20;99.90
13856;DHT22;6998;53.608;9.958;2023-07-20T01:10:40;15.20;99.90
13856;DHT22;6998;53.608;9.958;2023-07-20T01:13:09;15.30;99.90
13856;DHT22;6998;53.608;9.958;2023-07-20T01:15:36;15.20;99.90
13856;DHT22;6998;53.608;9.958;2023-07-20T01:18:03;15.20;99.90
13856;DHT22;6998;53.608;9.958;2023-07-20T01:20:31;15.10;99.90
13856;DHT22;6998;53.608;9.958;2023-07-20T01:23:22;15.10;99.90
13856;DHT22;6998;53.608;9.958;2023-07-20T01:26:12;15.00;99.90
13856;DHT22;6998;53.608;9.958;2023-07-20T01:28:58;15.00;99.90
13856;DHT22;6998;53.608;9.958;2023-07-20T01:31:32;15.00;99.90
13856;DHT22;6998;53.608;9.958;2023-07-20T01:34:02;15.00;99.90
13856;DHT22;6998;53.608;9.958;2023-07-20T01:36:30;15.00;99.90
13856;DHT22;6998;53.608;9.958;2023-07-20T01:38:59;15.00;99.90
13856;DHT22;6998;53.608;9.958;2023-07-20T01:41:27;15.00;99.90
13856;DHT22;6998;53.608;9.958;2023-07-20T01:43:57;15.00;99.90
13856;DHT22;6998;53.608;9.958;2023-07-20T01:46:24;15.10;99.90
13856;DHT22;6998;53.608;9.958;2023-07-20T01:48:53;15.10;99.90
13856;DHT22;6998;53.608;9.958;2023-07-20T01:51:19;15.10;99.90
13856;DHT22;6998;53.608;9.958;2023-07-20T01:53:46;15.10;99.90
13856;DHT22;6998;53.608;9.958;2023-07-20T01:56:13;15.10;99.90
13856;DHT22;6998;53.608;9.958;2023-07-20T01:58:39;15.10;99.90
13856;DHT22;6998;53.608;9.958;2023-07-20T02:01:06;15.10;99.90
13856;DHT22;6998;53.608;9.958;2023-07-20T02:03:33;15.10;99.90
13856;DHT22;6998;53.608;9.958;2023-07-20T02:06:01;15.20;99.90
13856;DHT22;6998;53.608;9.958;2023-07-20T02:08:27;15.20;99.90
13856;DHT22;6998;53.608;9.958;2023-07-20T02:10:54;15.10;99.90
13856;DHT22;6998;53.608;9.958;2023-07-20T02:13:21;15.20;99.90
13856;DHT22;6998;53.608;9.958;2023-07-20T02:15:47;15.30;99.90
13856;DHT22;6998;53.608;9.958;2023-07-20T02:18:14;15.20;99.90
13856;DHT22;6998;53.608;9.958;2023-07-20T02:20:41;15.20;99.90
13856;DHT22;6998;53.608;9.958;2023-07-20T02:23:09;15.20;99.90
13856;DHT22;6998;53.608;9.958;2023-07-20T02:25:36;15.20;99.90
13856;DHT22;6998;53.608;9.958;2023-07-20T02:28:04;15.30;99.90
13856;DHT22;6998;53.608;9.958;2023-07-20T02:30:30;15.20;99.90
13856;DHT22;6998;53.608;9.958;2023-07-20T02:32:57;15.30;99.90
13856;DHT22;6998;53.608;9.958;2023-07-20T02:35:24;15.30;99.90
13856;DHT22;6998;53.608;9.958;2023-07-20T02:37:51;15.20;99.90
13856;DHT22;6998;53.608;9.958;2023-07-20T02:40:20;15.20;99.90
13856;DHT22;6998;53.608;9.958;2023-07-20T02:42:47;15.10;99.90
13856;DHT22;6998;53.608;9.958;2023-07-20T02:45:13;15.10;99.90
13856;DHT22;6998;53.608;9.958;2023-07-20T02:47:40;15.10;99.90
13856;DHT22;6998;53.608;9.958;2023-07-20T02:50:08;15.10;99.90
13856;DHT22;6998;53.608;9.958;2023-07-20T02:52:35;15.10;99.90
13856;DHT22;6998;53.608;9.958;2023-07-20T02:55:02;15.10;99.90
13856;DHT22;6998;53.608;9.958;2023-07-20T02:57:30;15.10;99.90
13856;DHT22;6998;53.608;9.958;2023-07-20T02:59:56;15.10;99.90
13856;DHT22;6998;53.608;9.958;2023-07-20T03:02:23;15.10;99.90
13856;DHT22;6998;53.608;9.958;2023-07-20T03:04:50;15.10;99.90
13856;DHT22;6998;53.608;9.958;2023-07-20T03:07:17;15.10;99.90
13856;DHT22;6998;53.608;9.958;2023-07-20T03:09:44;15.00;99.90
13856;DHT22;6998;53.608;9.958;2023-07-20T03:12:10;15.00;99.90
13856;DHT22;6998;53.608;9.958;2023-07-20T03:14:38;15.00;99.90
13856;DHT22;6998;53.608;9.958;2023-07-20T03:17:05;15.00;99.90
13856;DHT22;6998;53.608;9.958;2023-07-20T03:19:32;15.00;99.90
13856;DHT22;6998;53.608;9.958;2023-07-20T03:21:59;15.10;99.90
13856;DHT22;6998;53.608;9.958;2023-07-20T03:24:26;15.10;99.90
13856;DHT22;6998;53.608;9.958;2023-07-20T03:26:52;15.10;99.90
13856;DHT22;6998;53.608;9.958;2023-07-20T03:29:19;15.10;99.90
13856;DHT22;6998;53.608;9.958;2023-07-20T03:31:47;15.10;99.90
13856;DHT22;6998;53.608;9.958;2023-07-20T03:34:14;15.00;99.90
13856;DHT22;6998;53.608;9.958;2023-07-20T03:36:41;15.00;99.90
13856;DHT22;6998;53.608;9.958;2023-07-20T03:39:07;15.00;99.90
13856;DHT22;6998;53.608;9.958;2023-07-20T03:41:34;15.00;99.90
13856;DHT22;6998;53.608;9.958;2023-07-20T03:44:02;15.00;99.90
13856;DHT22;6998;53.608;9.958;2023-07-20T03:46:29;14.90;99.90
13856;DHT22;6998;53.608;9.958;2023-07-20T03:48:57;15.00;99.90
13856;DHT22;6998;53.608;9.958;2023-07-20T03:51:24;15.00;99.90
13856;DHT22;6998;53.608;9.958;2023-07-20T03:53:51;15.00;99.90
13856;DHT22;6998;53.608;9.958;2023-07-20T03:56:17;15.00;99.90
13856;DHT22;6998;53.608;9.958;2023-07-20T03:58:44;15.10;99.90
13856;DHT22;6998;53.608;9.958;2023-07-20T04:01:11;15.10;99.90
13856;DHT22;6998;53.608;9.958;2023-07-20T04:03:38;15.00;99.90
13856;DHT22;6998;53.608;9.958;2023-07-20T04:06:06;15.00;99.90
13856;DHT22;6998;53.608;9.958;2023-07-20T04:08:33;15.00;99.90
13856;DHT22;6998;53.608;9.958;2023-07-20T04:11:01;15.10;99.90
13856;DHT22;6998;53.608;9.958;2023-07-20T04:13:28;15.10;99.90
13856;DHT22;6998;53.608;9.958;2023-07-20T04:15:58;15.20;99.90
13856;DHT22;6998;53.608;9.958;2023-07-20T04:18:25;15.20;99.90
13856;DHT22;6998;53.608;9.958;2023-07-20T04:20:52;15.10;99.90
13856;DHT22;6998;53.608;9.958;2023-07-20T04:23:20;15.00;99.90
13856;DHT22;6998;53.608;9.958;2023-07-20T04:25:47;15.00;99.90
13856;DHT22;6998;53.608;9.958;2023-07-20T04:28:13;14.90;99.90
13856;DHT22;6998;53.608;9.958;2023-07-20T04:30:40;15.00;99.90
13856;DHT22;6998;53.608;9.958;2023-07-20T04:33:06;15.00;99.90
13856;DHT22;6998;53.608;9.958;2023-07-20T04:35:47;15.10;99.90
13856;DHT22;6998;53.608;9.958;2023-07-20T04:38:14;15.10;99.90
13856;DHT22;6998;53.608;9.958;2023-07-20T04:40:44;15.00;99.90
13856;DHT22;6998;53.608;9.958;2023-07-20T04:43:11;15.00;99.90
13856;DHT22;6998;53.608;9.958;2023-07-20T04:45:37;15.10;99.90
13856;DHT22;6998;53.608;9.958;2023-07-20T04:48:08;15.10;99.90
13856;DHT22;6998;53.608;9.958;2023-07-20T04:50:35;15.10;99.90
13856;DHT22;6998;53.608;9.958;2023-07-20T04:53:02;15.10;99.90
13856;DHT22;6998;53.608;9.958;2023-07-20T04:55:29;15.00;99.90
13856;DHT22;6998;53.608;9.958;2023-07-20T04:57:57;15.00;99.90
13856;DHT22;6998;53.608;9.958;2023-07-20T05:00:24;15.00;99.90
13856;DHT22;6998;53.608;9.958;2023-07-20T05:02:50;14.90;99.90
13856;DHT22;6998;53.608;9.958;2023-07-20T05:05:17;14.90;99.90
13856;DHT22;6998;53.608;9.958;2023-07-20T05:07:44;14.90;99.90
13856;DHT22;6998;53.608;9.958;2023-07-20T05:10:11;15.00;99.90
13856;DHT22;6998;53.608;9.958;2023-07-20T05:12:38;15.00;99.90
13856;DHT22;6998;53.608;9.958;2023-07-20T05:15:07;15.00;99.90
13856;DHT22;6998;53.608;9.958;2023-07-20T05:17:34;15.10;99.90
13856;DHT22;6998;53.608;9.958;2023-07-20T05:20:00;15.20;99.90
13856;DHT22;6998;53.608;9.958;2023-07-20T05:22:27;15.30;99.90
13856;DHT22;6998;53.608;9.958;2023-07-20T05:24:54;15.40;99.90
13856;DHT22;6998;53.608;9.958;2023-07-20T05:27:20;15.50;99.90
13856;DHT22;6998;53.608;9.958;2023-07-20T05:29:47;15.40;99.90
13856;DHT22;6998;53.608;9.958;2023-07-20T05:32:15;15.40;99.90
13856;DHT22;6998;53.608;9.958;2023-07-20T05:34:42;15.30;99.90
13856;DHT22;6998;53.608;9.958;2023-07-20T05:37:09;15.40;99.90
13856;DHT22;6998;53.608;9.958;2023-07-20T05:39:35;15.40;99.90
13856;DHT22;6998;53.608;9.958;2023-07-20T05:42:02;15.40;99.90
13856;DHT22;6998;53.608;9.958;2023-07-20T05:44:29;15.50;99.90
13856;DHT22;6998;53.608;9.958;2023-07-20T05:46:56;15.50;99.90
13856;DHT22;6998;53.608;9.958;2023-07-20T05:49:24;15.60;99.90
13856;DHT22;6998;53.608;9.958;2023-07-20T05:51:50;15.60;99.90
13856;DHT22;6998;53.608;9.958;2023-07-20T05:54:17;15.60;99.90
13856;DHT22;6998;53.608;9.958;2023-07-20T05:56:45;15.60;99.90
13856;DHT22;6998;53.608;9.958;2023-07-20T05:59:12;15.60;99.90
13856;DHT22;6998;53.608;9.958;2023-07-20T06:01:39;15.70;99.90
13856;DHT22;6998;53.608;9.958;2023-07-20T06:04:05;15.80;99.90
13856;DHT22;6998;53.608;9.958;2023-07-20T06:06:33;16.00;99.90
13856;DHT22;6998;53.608;9.958;2023-07-20T06:09:00;16.10;99.90
13856;DHT22;6998;53.608;9.958;2023-07-20T06:11:29;16.10;99.90
13856;DHT22;6998;53.608;9.958;2023-07-20T06:13:56;16.10;99.90
13856;DHT22;6998;53.608;9.958;2023-07-20T06:16:22;16.10;99.90
13856;DHT22;6998;53.608;9.958;2023-07-20T06:18:49;16.20;99.90
13856;DHT22;6998;53.608;9.958;2023-07-20T06:21:16;16.30;99.90
13856;DHT22;6998;53.608;9.958;2023-07-20T06:23:44;16.40;99.90
13856;DHT22;6998;53.608;9.958;2023-07-20T06:26:11;16.40;99.90
13856;DHT22;6998;53.608;9.958;2023-07-20T06:28:38;16.40;99.90
13856;DHT22;6998;53.608;9.958;2023-07-20T06:31:05;16.50;99.90
13856;DHT22;6998;53.608;9.958;2023-07-20T06:33:32;16.50;99.90
13856;DHT22;6998;53.608;9.958;2023-07-20T06:36:00;16.50;99.90
13856;DHT22;6998;53.608;9.958;2023-07-20T06:38:26;16.60;99.90
13856;DHT22;6998;53.608;9.958;2023-07-20T06:40:56;16.60;99.90
13856;DHT22;6998;53.608;9.958;2023-07-20T06:43:22;16.80;99.90
13856;DHT22;6998;53.608;9.958;2023-07-20T06:45:51;16.80;99.90
13856;DHT22;6998;53.608;9.958;2023-07-20T06:48:19;17.00;99.90
13856;DHT22;6998;53.608;9.958;2023-07-20T06:50:46;17.10;99.90
13856;DHT22;6998;53.608;9.958;2023-07-20T06:53:12;17.20;99.90
13856;DHT22;6998;53.608;9.958;2023-07-20T06:55:41;17.20;99.90
13856;DHT22;6998;53.608;9.958;2023-07-20T06:58:09;17.30;99.90
13856;DHT22;6998;53.608;9.958;2023-07-20T07:00:36;17.10;99.90
13856;DHT22;6998;53.608;9.958;2023-07-20T07:03:02;17.00;99.90
13856;DHT22;6998;53.608;9.958;2023-07-20T07:05:29;16.90;99.90
13856;DHT22;6998;53.608;9.958;2023-07-20T07:07:56;16.70;99.90
13856;DHT22;6998;53.608;9.958;2023-07-20T07:10:23;16.50;99.90
13856;DHT22;6998;53.608;9.958;2023-07-20T07:12:49;16.50;99.90
13856;DHT22;6998;53.608;9.958;2023-07-20T07:15:18;16.50;99.90
13856;DHT22;6998;53.608;9.958;2023-07-20T07:17:44;16.80;99.90
13856;DHT22;6998;53.608;9.958;2023-07-20T07:20:11;17.00;99.90
13856;DHT22;6998;53.608;9.958;2023-07-20T07:22:38;17.30;99.90
13856;DHT22;6998;53.608;9.958;2023-07-20T07:25:06;17.60;99.90
13856;DHT22;6998;53.608;9.958;2023-07-20T07:27:33;17.90;99.90
13856;DHT22;6998;53.608;9.958;2023-07-20T07:29:59;18.00;99.90
13856;DHT22;6998;53.608;9.958;2023-07-20T07:32:27;18.00;99.90
13856;DHT22;6998;53.608;9.958;2023-07-20T07:34:54;17.90;99.90
13856;DHT22;6998;53.608;9.958;2023-07-20T07:37:23;17.70;99.90
13856;DHT22;6998;53.608;9.958;2023-07-20T07:39:50;17.40;99.90
13856;DHT22;6998;53.608;9.958;2023-07-20T07:42:17;17.20;99.90
13856;DHT22;6998;53.608;9.958;2023-07-20T07:44:44;17.10;99.90
13856;DHT22;6998;53.608;9.958;2023-07-20T07:47:11;17.00;99.90
13856;DHT22;6998;53.608;9.958;2023-07-20T07:49:39;17.10;99.90
13856;DHT22;6998;53.608;9.958;2023-07-20T07:52:06;17.30;99.90
13856;DHT22;6998;53.608;9.958;2023-07-20T07:54:33;17.50;99.90
13856;DHT22;6998;53.608;9.958;2023-07-20T07:57:00;17.80;99.90
13856;DHT22;6998;53.608;9.958;2023-07-20T07:59:27;18.10;99.90
13856;DHT22;6998;53.608;9.958;2023-07-20T08:01:55;18.30;99.90
13856;DHT22;6998;53.608;9.958;2023-07-20T08:04:22;18.20;99.90
13856;DHT22;6998;53.608;9.958;2023-07-20T08:06:50;18.10;99.90
13856;DHT22;6998;53.608;9.958;2023-07-20T08:09:17;18.10;99.90
13856;DHT22;6998;53.608;9.958;2023-07-20T08:11:45;18.20;99.90
13856;DHT22;6998;53.608;9.958;2023-07-20T08:14:13;18.30;99.90
13856;DHT22;6998;53.608;9.958;2023-07-20T08:16:40;18.40;99.90
13856;DHT22;6998;53.608;9.958;2023-07-20T08:19:08;18.60;99.90
13856;DHT22;6998;53.608;9.958;2023-07-20T08:21:35;18.70;99.90
13856;DHT22;6998;53.608;9.958;2023-07-20T08:24:03;19.00;99.90
13856;DHT22;6998;53.608;9.958;2023-07-20T08:26:30;18.90;99.90
13856;DHT22;6998;53.608;9.958;2023-07-20T08:28:57;18.90;99.90
13856;DHT22;6998;53.608;9.958;2023-07-20T08:31:23;19.00;99.90
13856;DHT22;6998;53.608;9.958;2023-07-20T08:33:50;19.10;99.90
13856;DHT22;6998;53.608;9.958;2023-07-20T08:36:17;19.10;99.90
13856;DHT22;6998;53.608;9.958;2023-07-20T08:38:43;19.20;99.90
13856;DHT22;6998;53.608;9.958;2023-07-20T08:41:12;19.40;99.90
13856;DHT22;6998;53.608;9.958;2023-07-20T08:43:41;19.30;99.90
13856;DHT22;6998;53.608;9.958;2023-07-20T08:46:11;19.30;99.90
13856;DHT22;6998;53.608;9.958;2023-07-20T08:48:39;19.20;99.90
13856;DHT22;6998;53.608;9.958;2023-07-20T08:51:07;19.10;99.90
13856;DHT22;6998;53.608;9.958;2023-07-20T08:53:34;19.00;99.90
13856;DHT22;6998;53.608;9.958;2023-07-20T08:56:01;19.00;99.90
13856;DHT22;6998;53.608;9.958;2023-07-20T08:58:30;18.90;99.90
13856;DHT22;6998;53.608;9.958;2023-07-20T09:00:58;18.80;99.90
13856;DHT22;6998;53.608;9.958;2023-07-20T09:03:26;18.80;99.90
13856;DHT22;6998;53.608;9.958;2023-07-20T09:05:54;19.10;99.90
13856;DHT22;6998;53.608;9.958;2023-07-20T09:08:20;19.50;99.90
13856;DHT22;6998;53.608;9.958;2023-07-20T09:10:47;19.90;99.90
13856;DHT22;6998;53.608;9.958;2023-07-20T09:13:14;20.50;99.90
13856;DHT22;6998;53.608;9.958;2023-07-20T09:15:47;20.80;99.90
13856;DHT22;6998;53.608;9.958;2023-07-20T09:18:23;20.70;99.90
13856;DHT22;6998;53.608;9.958;2023-07-20T09:20:50;20.40;99.90
13856;DHT22;6998;53.608;9.958;2023-07-20T09:23:17;20.00;99.90
13856;DHT22;6998;53.608;9.958;2023-07-20T09:25:44;19.50;99.90
13856;DHT22;6998;53.608;9.958;2023-07-20T09:28:11;19.00;99.90
13856;DHT22;6998;53.608;9.958;2023-07-20T09:30:38;18.60;99.90
13856;DHT22;6998;53.608;9.958;2023-07-20T09:33:18;18.40;99.90
13856;DHT22;6998;53.608;9.958;2023-07-20T09:35:45;18.10;99.90
13856;DHT22;6998;53.608;9.958;2023-07-20T09:38:11;17.80;99.90
13856;DHT22;6998;53.608;9.958;2023-07-20T09:40:38;17.80;99.90
13856;DHT22;6998;53.608;9.958;2023-07-20T09:43:07;17.80;99.90
13856;DHT22;6998;53.608;9.958;2023-07-20T09:45:35;17.90;99.90
13856;DHT22;6998;53.608;9.958;2023-07-20T09:48:08;18.20;99.90
13856;DHT22;6998;53.608;9.958;2023-07-20T09:50:40;18.40;99.90
13856;DHT22;6998;53.608;9.958;2023-07-20T09:53:09;18.60;99.90
13856;DHT22;6998;53.608;9.958;2023-07-20T09:55:40;18.70;99.90
13856;DHT22;6998;53.608;9.958;2023-07-20T09:58:08;19.00;99.90
13856;DHT22;6998;53.608;9.958;2023-07-20T10:00:36;19.30;99.90
13856;DHT22;6998;53.608;9.958;2023-07-20T10:03:06;19.40;99.90
13856;DHT22;6998;53.608;9.958;2023-07-20T10:05:35;19.70;99.90
13856;DHT22;6998;53.608;9.958;2023-07-20T10:08:03;20.00;99.90
13856;DHT22;6998;53.608;9.958;2023-07-20T10:10:33;20.20;99.90
13856;DHT22;6998;53.608;9.958;2023-07-20T10:13:01;20.50;99.90
13856;DHT22;6998;53.608;9.958;2023-07-20T10:15:32;20.60;99.90
13856;DHT22;6998;53.608;9.958;2023-07-20T10:18:05;20.60;99.90
13856;DHT22;6998;53.608;9.958;2023-07-20T10:20:36;20.70;99.90
13856;DHT22;6998;53.608;9.958;2023-07-20T10:23:06;20.80;99.90
13856;DHT22;6998;53.608;9.958;2023-07-20T10:25:33;20.80;99.90
13856;DHT22;6998;53.608;9.958;2023-07-20T10:28:04;20.70;99.90
13856;DHT22;6998;53.608;9.958;2023-07-20T10:30:31;20.50;99.90
13856;DHT22;6998;53.608;9.958;2023-07-20T10:32:58;20.20;99.90
13856;DHT22;6998;53.608;9.958;2023-07-20T10:35:28;19.80;99.90
13856;DHT22;6998;53.608;9.958;2023-07-20T10:38:00;19.70;99.90
13856;DHT22;6998;53.608;9.958;2023-07-20T10:40:29;19.80;99.90
13856;DHT22;6998;53.608;9.958;2023-07-20T10:43:00;20.30;99.90
13856;DHT22;6998;53.608;9.958;2023-07-20T10:45:35;20.70;99.90
13856;DHT22;6998;53.608;9.958;2023-07-20T10:48:06;20.60;99.90
13856;DHT22;6998;53.608;9.958;2023-07-20T10:50:39;20.30;99.90
13856;DHT22;6998;53.608;9.958;2023-07-20T10:53:15;19.80;99.90
13856;DHT22;6998;53.608;9.958;2023-07-20T10:55:43;19.50;99.90
13856;DHT22;6998;53.608;9.958;2023-07-20T10:58:13;19.50;99.90
13856;DHT22;6998;53.608;9.958;2023-07-20T11:01:00;19.90;99.90
13856;DHT22;6998;53.608;9.958;2023-07-20T11:03:28;20.50;99.90
13856;DHT22;6998;53.608;9.958;2023-07-20T11:05:56;21.00;99.90
13856;DHT22;6998;53.608;9.958;2023-07-20T11:08:40;20.70;99.90
13856;DHT22;6998;53.608;9.958;2023-07-20T11:11:24;20.30;99.90
13856;DHT22;6998;53.608;9.958;2023-07-20T11:13:56;20.00;99.90
13856;DHT22;6998;53.608;9.958;2023-07-20T11:16:37;19.80;99.90
13856;DHT22;6998;53.608;9.958;2023-07-20T11:19:04;20.20;99.90
13856;DHT22;6998;53.608;9.958;2023-07-20T11:21:36;20.70;99.90
13856;DHT22;6998;53.608;9.958;2023-07-20T11:24:05;21.10;99.90
13856;DHT22;6998;53.608;9.958;2023-07-20T11:26:43;21.40;99.90
13856;DHT22;6998;53.608;9.958;2023-07-20T11:29:10;21.60;99.90
13856;DHT22;6998;53.608;9.958;2023-07-20T11:31:38;21.90;99.90
13856;DHT22;6998;53.608;9.958;2023-07-20T11:34:05;21.80;99.90
13856;DHT22;6998;53.608;9.958;2023-07-20T11:36:33;21.70;99.90
13856;DHT22;6998;53.608;9.958;2023-07-20T11:39:00;21.40;99.90
13856;DHT22;6998;53.608;9.958;2023-07-20T11:41:29;21.10;99.90
13856;DHT22;6998;53.608;9.958;2023-07-20T11:43:57;20.90;99.90
13856;DHT22;6998;53.608;9.958;2023-07-20T11:46:24;20.90;99.90
13856;DHT22;6998;53.608;9.958;2023-07-20T11:48:56;20.80;99.90
13856;DHT22;6998;53.608;9.958;2023-07-20T11:51:23;20.80;99.90
13856;DHT22;6998;53.608;9.958;2023-07-20T11:53:50;20.80;99.90
13856;DHT22;6998;53.608;9.958;2023-07-20T11:56:17;21.00;99.90
13856;DHT22;6998;53.608;9.958;2023-07-20T11:58:45;21.00;99.90
13856;DHT22;6998;53.608;9.958;2023-07-20T12:01:13;21.20;99.90
13856;DHT22;6998;53.608;9.958;2023-07-20T12:03:41;21.40;99.90
13856;DHT22;6998;53.608;9.958;2023-07-20T12:06:08;21.40;99.90
13856;DHT22;6998;53.608;9.958;2023-07-20T12:08:38;21.50;99.90
13856;DHT22;6998;53.608;9.958;2023-07-20T12:11:06;21.70;99.90
13856;DHT22;6998;53.608;9.958;2023-07-20T12:13:37;21.80;99.90
13856;DHT22;6998;53.608;9.958;2023-07-20T12:16:09;21.60;99.90
13856;DHT22;6998;53.608;9.958;2023-07-20T12:18:37;21.50;99.90
13856;DHT22;6998;53.608;9.958;2023-07-20T12:21:05;21.20;99.90
13856;DHT22;6998;53.608;9.958;2023-07-20T12:23:35;21.10;99.90
13856;DHT22;6998;53.608;9.958;2023-07-20T12:26:06;20.90;99.90
13856;DHT22;6998;53.608;9.958;2023-07-20T12:28:33;20.70;99.90
13856;DHT22;6998;53.608;9.958;2023-07-20T12:31:00;20.80;99.90
13856;DHT22;6998;53.608;9.958;2023-07-20T12:33:28;20.80;99.90
13856;DHT22;6998;53.608;9.958;2023-07-20T12:35:54;20.80;99.90
13856;DHT22;6998;53.608;9.958;2023-07-20T12:38:24;20.90;99.90
13856;DHT22;6998;53.608;9.958;2023-07-20T12:40:50;20.80;99.90
13856;DHT22;6998;53.608;9.958;2023-07-20T12:43:17;20.80;99.90
13856;DHT22;6998;53.608;9.958;2023-07-20T12:45:44;20.70;99.90
13856;DHT22;6998;53.608;9.958;2023-07-20T12:48:11;20.80;99.90
13856;DHT22;6998;53.608;9.958;2023-07-20T12:50:39;20.70;99.90
13856;DHT22;6998;53.608;9.958;2023-07-20T12:53:06;20.80;99.90
13856;DHT22;6998;53.608;9.958;2023-07-20T12:55:33;20.70;99.90
13856;DHT22;6998;53.608;9.958;2023-07-20T12:58:00;20.60;99.90
13856;DHT22;6998;53.608;9.958;2023-07-20T13:00:26;20.60;99.90
13856;DHT22;6998;53.608;9.958;2023-07-20T13:02:53;20.80;99.90
13856;DHT22;6998;53.608;9.958;2023-07-20T13:05:20;21.40;99.90
13856;DHT22;6998;53.608;9.958;2023-07-20T13:07:48;21.70;99.90
13856;DHT22;6998;53.608;9.958;2023-07-20T13:10:15;21.90;99.90
13856;DHT22;6998;53.608;9.958;2023-07-20T13:12:43;22.30;99.90
13856;DHT22;6998;53.608;9.958;2023-07-20T13:15:10;22.40;99.90
13856;DHT22;6998;53.608;9.958;2023-07-20T13:17:38;22.70;99.90
13856;DHT22;6998;53.608;9.958;2023-07-20T13:20:06;23.00;99.90
13856;DHT22;6998;53.608;9.958;2023-07-20T13:22:35;22.90;99.90
13856;DHT22;6998;53.608;9.958;2023-07-20T13:25:04;23.20;99.90
13856;DHT22;6998;53.608;9.958;2023-07-20T13:27:31;23.30;99.90
13856;DHT22;6998;53.608;9.958;2023-07-20T13:29:58;23.20;99.90
13856;DHT22;6998;53.608;9.958;2023-07-20T13:32:26;23.00;99.90
13856;DHT22;6998;53.608;9.958;2023-07-20T13:34:53;23.10;99.90
13856;DHT22;6998;53.608;9.958;2023-07-20T13:37:20;23.40;99.90
13856;DHT22;6998;53.608;9.958;2023-07-20T13:39:47;23.70;99.90
13856;DHT22;6998;53.608;9.958;2023-07-20T13:42:15;24.10;99.90
13856;DHT22;6998;53.608;9.958;2023-07-20T13:44:42;24.10;99.90
13856;DHT22;6998;53.608;9.958;2023-07-20T13:47:09;24.00;99.90
13856;DHT22;6998;53.608;9.958;2023-07-20T13:49:37;23.40;99.90
13856;DHT22;6998;53.608;9.958;2023-07-20T13:52:04;22.60;99.90
13856;DHT22;6998;53.608;9.958;2023-07-20T13:54:31;22.20;99.90
13856;DHT22;6998;53.608;9.958;2023-07-20T13:56:58;22.00;99.90
13856;DHT22;6998;53.608;9.958;2023-07-20T13:59:26;21.90;99.90
13856;DHT22;6998;53.608;9.958;2023-07-20T14:01:52;21.90;99.90
13856;DHT22;6998;53.608;9.958;2023-07-20T14:04:19;21.50;99.90
13856;DHT22;6998;53.608;9.958;2023-07-20T14:06:46;21.40;99.90
13856;DHT22;6998;53.608;9.958;2023-07-20T14:09:13;21.40;99.90
13856;DHT22;6998;53.608;9.958;2023-07-20T14:11:39;21.40;99.90
13856;DHT22;6998;53.608;9.958;2023-07-20T14:14:06;21.30;99.90
13856;DHT22;6998;53.608;9.958;2023-07-20T14:16:34;21.10;99.90
13856;DHT22;6998;53.608;9.958;2023-07-20T14:19:01;21.10;99.90
13856;DHT22;6998;53.608;9.958;2023-07-20T14:21:30;21.30;99.90
13856;DHT22;6998;53.608;9.958;2023-07-20T14:23:57;21.60;99.90
13856;DHT22;6998;53.608;9.958;2023-07-20T14:26:24;21.90;99.90
13856;DHT22;6998;53.608;9.958;2023-07-20T14:28:51;22.10;99.90
13856;DHT22;6998;53.608;9.958;2023-07-20T14:31:17;22.00;99.90
13856;DHT22;6998;53.608;9.958;2023-07-20T14:33:46;22.10;99.90
13856;DHT22;6998;53.608;9.958;2023-07-20T14:36:13;22.20;99.90
13856;DHT22;6998;53.608;9.958;2023-07-20T14:38:40;22.20;99.90
13856;DHT22;6998;53.608;9.958;2023-07-20T14:41:07;22.20;99.90
13856;DHT22;6998;53.608;9.958;2023-07-20T14:43:33;22.10;99.90
13856;DHT22;6998;53.608;9.958;2023-07-20T14:46:00;22.10;99.90
13856;DHT22;6998;53.608;9.958;2023-07-20T14:48:27;22.00;99.90
13856;DHT22;6998;53.608;9.958;2023-07-20T14:50:55;21.80;99.90
13856;DHT22;6998;53.608;9.958;2023-07-20T14:53:21;21.70;99.90
13856;DHT22;6998;53.608;9.958;2023-07-20T14:55:48;21.50;99.90
13856;DHT22;6998;53.608;9.958;2023-07-20T14:58:15;21.30;99.90
13856;DHT22;6998;53.608;9.958;2023-07-20T15:00:42;21.20;99.90
13856;DHT22;6998;53.608;9.958;2023-07-20T15:03:08;21.20;99.90
13856;DHT22;6998;53.608;9.958;2023-07-20T15:05:35;21.10;99.90
13856;DHT22;6998;53.608;9.958;2023-07-20T15:08:05;21.20;99.90
13856;DHT22;6998;53.608;9.958;2023-07-20T15:10:34;21.20;99.90
13856;DHT22;6998;53.608;9.958;2023-07-20T15:13:00;21.00;99.90
13856;DHT22;6998;53.608;9.958;2023-07-20T15:15:28;21.00;99.90
13856;DHT22;6998;53.608;9.958;2023-07-20T15:17:55;21.20;99.90
13856;DHT22;6998;53.608;9.958;2023-07-20T15:20:21;21.50;99.90
13856;DHT22;6998;53.608;9.958;2023-07-20T15:22:48;21.80;99.90
13856;DHT22;6998;53.608;9.958;2023-07-20T15:25:16;22.20;99.90
13856;DHT22;6998;53.608;9.958;2023-07-20T15:27:43;22.30;99.90
13856;DHT22;6998;53.608;9.958;2023-07-20T15:30:12;22.30;99.90
13856;DHT22;6998;53.608;9.958;2023-07-20T15:32:40;22.50;99.90
13856;DHT22;6998;53.608;9.958;2023-07-20T15:35:09;22.70;99.90
13856;DHT22;6998;53.608;9.958;2023-07-20T15:37:36;22.60;99.90
13856;DHT22;6998;53.608;9.958;2023-07-20T15:40:04;22.30;99.90
13856;DHT22;6998;53.608;9.958;2023-07-20T15:42:32;22.30;99.90
13856;DHT22;6998;53.608;9.958;2023-07-20T15:44:59;22.40;99.90
13856;DHT22;6998;53.608;9.958;2023-07-20T15:47:26;22.70;99.90
13856;DHT22;6998;53.608;9.958;2023-07-20T15:49:53;22.80;99.90